createdAt,value
2019-04-24T00:03:08.681Z,15.10
2019-04-24T00:08:11.190Z,11.67
2019-04-24T00:11:08.446Z,14.40
2019-04-24T00:16:08.726Z,8.60
2019-04-24T00:21:08.924Z,19.60
2019-04-24T00:23:56.114Z,18.70
2019-04-24T00:26:08.020Z,13.63
2019-04-24T00:28:49.442Z,9.00
2019-04-24T00:31:09.819Z,17.30
2019-04-24T00:33:50.508Z,15.10
2019-04-24T00:36:33.393Z,10.50
2019-04-24T00:38:54.886Z,16.53
2019-04-24T00:41:21.864Z,10.53
2019-04-24T00:43:55.831Z,10.10
2019-04-24T00:51:29.469Z,14.23
2019-04-24T00:58:47.406Z,13.20
2019-04-24T01:04:47.163Z,13.30
2019-04-24T01:07:12.304Z,12.20
2019-04-24T01:09:39.036Z,9.90
2019-04-24T01:11:51.851Z,10.50
2019-04-24T01:14:20.999Z,12.47
2019-04-24T01:16:56.150Z,18.27
2019-04-24T01:21:59.990Z,15.23
2019-04-24T01:24:18.914Z,8.67
2019-04-24T01:26:56.505Z,15.57
2019-04-24T01:29:26.428Z,11.53
2019-04-24T01:32:01.118Z,11.00
2019-04-24T01:37:28.919Z,11.27
2019-04-24T01:39:48.745Z,14.10
2019-04-24T01:45:08.000Z,16.03
2019-04-24T01:47:35.404Z,12.50
2019-04-24T01:49:59.788Z,9.20
2019-04-24T01:52:40.417Z,13.77
2019-04-24T02:00:03.081Z,11.43
2019-04-24T02:02:34.744Z,10.53
2019-04-24T02:04:58.027Z,14.40
2019-04-24T02:15:15.309Z,10.70
2019-04-24T02:17:47.207Z,12.03
2019-04-24T02:20:25.607Z,11.77
2019-04-24T02:27:48.094Z,14.37
2019-04-24T02:30:32.986Z,8.80
2019-04-24T02:33:35.373Z,14.67
2019-04-24T02:35:46.912Z,12.00
2019-04-24T02:45:57.475Z,12.30
2019-04-24T02:48:28.634Z,11.97
2019-04-24T02:50:53.898Z,14.97
2019-04-24T02:53:19.965Z,11.40
2019-04-24T02:55:37.955Z,13.67
2019-04-24T02:58:29.454Z,18.20
2019-04-24T03:08:43.393Z,15.03
2019-04-24T03:19:02.074Z,15.07
2019-04-24T03:23:47.854Z,13.00
2019-04-24T03:29:01.106Z,15.33
2019-04-24T03:31:49.095Z,16.97
2019-04-24T03:44:25.018Z,20.87
2019-04-24T03:46:27.705Z,15.33
2019-04-24T03:56:36.686Z,13.63
2019-04-24T03:59:15.561Z,17.90
2019-04-24T04:01:59.804Z,18.40
2019-04-24T04:04:21.729Z,16.93
2019-04-24T04:09:25.728Z,15.60
2019-04-24T04:14:27.571Z,12.77
2019-04-24T04:17:00.263Z,17.13
2019-04-24T04:19:42.010Z,18.13
2019-04-24T04:27:07.153Z,12.43
2019-04-24T04:32:23.557Z,13.07
2019-04-24T04:34:58.109Z,13.17
2019-04-24T04:37:31.563Z,13.53
2019-04-24T04:40:26.212Z,14.93
2019-04-24T04:45:11.099Z,12.70
2019-04-24T04:47:59.678Z,21.93
2019-04-24T05:01:06.879Z,12.17
2019-04-24T05:03:37.128Z,20.53
2019-04-24T05:13:12.964Z,11.40
2019-04-24T05:18:58.409Z,12.23
2019-04-24T05:20:57.246Z,14.60
2019-04-24T05:23:35.994Z,11.03
2019-04-24T05:31:06.285Z,17.30
2019-04-24T05:33:40.651Z,10.93
2019-04-24T05:36:01.036Z,11.70
2019-04-24T05:39:07.784Z,14.23
2019-04-24T05:41:25.035Z,16.13
2019-04-24T05:43:58.587Z,14.50
2019-04-24T05:46:27.741Z,17.23
2019-04-24T05:48:59.256Z,16.67
2019-04-24T05:51:31.117Z,14.63
2019-04-24T05:54:03.847Z,14.07
2019-04-24T05:56:41.548Z,14.43
2019-04-24T06:04:35.913Z,13.30
2019-04-24T06:09:34.774Z,21.27
2019-04-24T06:12:17.342Z,13.23
2019-04-24T06:14:48.935Z,8.07
2019-04-24T06:17:22.573Z,11.67
2019-04-24T06:20:21.683Z,13.80
2019-04-24T06:22:49.666Z,10.47
2019-04-24T06:25:06.389Z,10.07
2019-04-24T06:27:39.921Z,14.57
2019-04-24T06:30:04.996Z,11.60
2019-04-24T06:32:34.804Z,10.93
2019-04-24T06:38:02.937Z,21.53
2019-04-24T06:43:43.766Z,13.83
2019-04-24T06:48:19.595Z,22.40
2019-04-24T06:51:01.817Z,21.53
2019-04-24T06:53:23.469Z,20.03
2019-04-24T07:09:14.023Z,14.73
2019-04-24T07:14:05.765Z,12.40
2019-04-24T07:17:09.048Z,25.53
2019-04-24T07:19:40.923Z,22.33
2019-04-24T07:22:02.793Z,15.57
2019-04-24T07:27:26.621Z,18.40
2019-04-24T07:29:53.360Z,12.17
2019-04-24T07:32:33.974Z,10.63
2019-04-24T07:35:17.406Z,13.70
2019-04-24T07:37:52.676Z,15.33
2019-04-24T07:40:20.694Z,10.67
2019-04-24T07:43:06.177Z,18.37
2019-04-24T07:47:44.584Z,15.30
2019-04-24T07:50:18.967Z,11.70
2019-04-24T07:55:25.807Z,12.53
2019-04-24T07:57:49.428Z,11.37
2019-04-24T08:00:28.049Z,13.60
2019-04-24T08:05:25.157Z,9.87
2019-04-24T08:08:15.264Z,10.53
2019-04-24T08:10:45.106Z,23.97
2019-04-24T08:13:05.253Z,18.80
2019-04-24T08:15:34.480Z,15.23
2019-04-24T08:18:05.493Z,14.73
2019-04-24T08:20:48.702Z,11.03
2019-04-24T08:23:18.877Z,12.90
2019-04-24T08:25:45.083Z,14.37
2019-04-24T08:28:09.988Z,29.67
2019-04-24T08:30:52.838Z,11.47
2019-04-24T08:33:40.377Z,19.07
2019-04-24T08:38:29.814Z,16.57
2019-04-24T08:41:03.123Z,13.07
2019-04-24T08:53:50.321Z,16.70
2019-04-24T08:58:42.229Z,15.40
2019-04-24T09:04:26.964Z,13.40
2019-04-24T09:06:40.234Z,13.90
2019-04-24T09:12:04.023Z,14.50
2019-04-24T09:16:52.108Z,14.00
2019-04-24T09:19:19.507Z,14.03
2019-04-24T09:21:55.323Z,19.03
2019-04-24T09:30:19.682Z,11.10
2019-04-24T09:40:27.689Z,15.37
2019-04-24T09:45:07.253Z,9.50
2019-04-24T09:47:56.610Z,18.47
2019-04-24T09:50:15.109Z,22.03
2019-04-24T09:52:55.372Z,13.63
2019-04-24T09:55:21.608Z,12.07
2019-04-24T10:00:29.097Z,12.13
2019-04-24T10:03:05.957Z,13.30
2019-04-24T10:06:03.535Z,17.33
2019-04-24T10:08:14.965Z,19.93
2019-04-24T10:10:42.796Z,20.50
2019-04-24T10:13:13.993Z,12.53
2019-04-24T10:18:24.767Z,12.00
2019-04-24T10:20:46.624Z,12.50
2019-04-24T10:23:59.300Z,12.50
2019-04-24T10:32:01.456Z,16.83
2019-04-24T10:34:12.890Z,15.53
2019-04-24T10:36:59.315Z,24.00
2019-04-24T10:39:57.406Z,16.63
2019-04-24T10:47:45.177Z,15.87
2019-04-24T10:50:00.437Z,12.57
2019-04-24T10:52:45.828Z,9.83
2019-04-24T10:55:15.838Z,15.50
2019-04-24T10:57:49.839Z,12.40
2019-04-24T11:00:32.431Z,10.90
2019-04-24T11:03:00.868Z,9.00
2019-04-24T11:08:10.884Z,8.00
2019-04-24T11:15:48.420Z,13.43
2019-04-24T11:18:44.465Z,9.67
2019-04-24T11:26:18.499Z,9.00
2019-04-24T11:31:34.050Z,10.37
2019-04-24T11:36:52.754Z,10.13
2019-04-24T11:41:52.959Z,5.97
2019-04-24T11:44:17.133Z,5.60
2019-04-24T11:47:21.676Z,11.50
2019-04-24T11:49:55.321Z,6.73
2019-04-24T11:52:19.585Z,10.33
2019-04-24T11:59:32.121Z,13.63
2019-04-24T12:07:50.082Z,15.30
2019-04-24T12:10:17.588Z,9.63
2019-04-24T12:12:46.055Z,7.70
2019-04-24T12:15:09.721Z,6.30
2019-04-24T12:18:11.957Z,10.37
2019-04-24T12:20:40.920Z,4.37
2019-04-24T12:23:04.177Z,6.03
2019-04-24T12:25:49.250Z,8.60
2019-04-24T12:28:05.679Z,8.27
2019-04-24T12:30:52.046Z,11.60
2019-04-24T12:33:06.295Z,6.47
2019-04-24T12:35:47.975Z,12.10
2019-04-24T12:38:12.346Z,9.83
2019-04-24T12:41:05.646Z,8.33
2019-04-24T12:43:29.622Z,5.27
2019-04-24T12:45:55.547Z,8.67
2019-04-24T12:48:30.337Z,12.40
2019-04-24T12:51:04.908Z,10.33
2019-04-24T12:53:33.154Z,11.97
2019-04-24T12:56:03.423Z,17.27
2019-04-24T13:04:11.638Z,5.33
2019-04-24T13:06:24.998Z,9.67
2019-04-24T13:09:22.516Z,8.63
2019-04-24T13:11:55.308Z,9.57
2019-04-24T13:14:19.359Z,8.20
2019-04-24T13:17:10.431Z,6.10
2019-04-24T13:19:20.025Z,9.07
2019-04-24T13:21:30.203Z,12.77
2019-04-24T13:24:06.250Z,7.00
2019-04-24T13:27:08.724Z,7.03
2019-04-24T13:29:35.705Z,9.77
2019-04-24T13:32:04.939Z,15.27
2019-04-24T13:34:35.258Z,8.77
2019-04-24T13:37:18.342Z,9.63
2019-04-24T13:39:41.393Z,11.17
2019-04-24T13:42:15.563Z,6.40
2019-04-24T13:44:36.492Z,6.77
2019-04-24T13:47:04.576Z,7.23
2019-04-24T13:49:40.948Z,8.90
2019-04-24T13:52:19.281Z,7.27
2019-04-24T13:54:37.339Z,8.97
2019-04-24T13:57:15.472Z,8.27
2019-04-24T13:59:35.551Z,6.40
2019-04-24T14:02:01.357Z,8.93
2019-04-24T14:04:28.266Z,7.77
2019-04-24T14:07:11.707Z,8.23
2019-04-24T14:09:58.081Z,9.47
2019-04-24T14:14:55.542Z,7.47
2019-04-24T14:17:26.359Z,7.43
2019-04-24T14:19:51.878Z,3.83
2019-04-24T14:22:30.913Z,5.73
2019-04-24T14:27:19.697Z,8.13
2019-04-24T14:29:49.649Z,7.13
2019-04-24T14:34:58.134Z,7.63
2019-04-24T14:37:15.746Z,10.00
2019-04-24T14:39:53.854Z,8.43
2019-04-24T14:42:20.536Z,4.97
2019-04-24T14:55:09.280Z,4.20
2019-04-24T14:57:33.578Z,7.37
2019-04-24T15:02:39.424Z,10.00
2019-04-24T15:05:11.105Z,6.47
2019-04-24T15:10:11.489Z,8.17
2019-04-24T15:15:08.978Z,8.37
2019-04-24T15:18:00.268Z,8.20
2019-04-24T15:20:18.427Z,7.03
2019-04-24T15:22:52.849Z,12.60
2019-04-24T15:25:30.407Z,4.10
2019-04-24T15:27:54.731Z,8.00
2019-04-24T15:30:23.867Z,14.07
2019-04-24T15:32:56.822Z,7.40
2019-04-24T15:37:57.420Z,11.90
2019-04-24T15:43:02.168Z,11.13
2019-04-24T15:45:19.392Z,7.87
2019-04-24T15:50:21.645Z,14.50
2019-04-24T15:52:22.414Z,15.10
2019-04-24T15:54:51.181Z,22.60
2019-04-24T15:57:21.296Z,9.17
2019-04-24T16:00:13.307Z,12.83
2019-04-24T16:03:01.461Z,15.27
2019-04-24T16:04:55.429Z,16.23
2019-04-24T16:07:40.173Z,13.00
2019-04-24T16:10:10.468Z,12.63
2019-04-24T16:12:38.874Z,7.23
2019-04-24T16:15:40.406Z,7.20
2019-04-24T16:18:09.421Z,6.17
2019-04-24T16:20:39.998Z,9.70
2019-04-24T16:23:12.871Z,5.90
2019-04-24T16:25:40.153Z,7.80
2019-04-24T16:30:35.609Z,10.60
2019-04-24T16:35:47.990Z,11.27
2019-04-24T16:38:18.349Z,9.03
2019-04-24T16:53:36.667Z,11.63
2019-04-24T16:56:06.756Z,17.07
2019-04-24T16:58:31.548Z,16.27
2019-04-24T17:04:13.394Z,11.90
2019-04-24T17:08:59.843Z,8.23
2019-04-24T17:14:00.524Z,9.20
2019-04-24T17:16:28.688Z,7.87
2019-04-24T17:19:11.879Z,6.13
2019-04-24T17:21:37.399Z,10.03
2019-04-24T17:24:00.315Z,26.53
2019-04-24T17:29:14.340Z,40.83
2019-04-24T17:31:24.871Z,24.23
2019-04-24T17:34:10.868Z,30.87
2019-04-24T17:38:35.329Z,19.00
2019-04-24T17:41:06.736Z,17.67
2019-04-24T17:46:34.129Z,11.80
2019-04-24T17:49:09.638Z,4.90
2019-04-24T17:54:01.832Z,5.43
2019-04-24T17:56:42.541Z,8.47
2019-04-24T17:58:37.036Z,11.50
2019-04-24T18:01:10.238Z,8.80
2019-04-24T18:03:39.271Z,13.43
2019-04-24T18:06:08.088Z,3.80
2019-04-24T18:08:36.758Z,10.60
2019-04-24T18:11:05.244Z,19.10
2019-04-24T18:13:33.733Z,18.03
2019-04-24T18:16:03.267Z,6.60
2019-04-24T18:18:32.445Z,2.90
2019-04-24T18:21:02.944Z,2.93
2019-04-24T18:23:32.493Z,4.27
2019-04-24T18:26:08.992Z,2.87
2019-04-24T18:28:37.530Z,3.20
2019-04-24T18:31:06.004Z,2.83
2019-04-24T18:33:34.455Z,1.70
2019-04-24T18:36:03.347Z,1.80
2019-04-24T18:38:32.897Z,3.20
2019-04-24T18:41:01.982Z,6.30
2019-04-24T18:43:31.414Z,3.13
2019-04-24T18:45:59.902Z,6.67
2019-04-24T18:48:28.304Z,3.27
2019-04-24T18:50:56.732Z,5.17
2019-04-24T18:53:25.184Z,4.13
2019-04-24T18:55:53.650Z,3.50
2019-04-24T18:58:22.193Z,4.90
2019-04-24T19:00:51.934Z,2.63
2019-04-24T19:03:22.114Z,3.50
2019-04-24T19:05:52.072Z,4.07
2019-04-24T19:08:21.715Z,4.40
2019-04-24T19:10:51.493Z,2.67
2019-04-24T19:13:21.563Z,1.83
2019-04-24T19:15:51.288Z,2.77
2019-04-24T19:18:20.348Z,2.83
2019-04-24T19:20:49.014Z,3.73
2019-04-24T19:23:17.421Z,4.20
2019-04-24T19:25:45.813Z,3.07
2019-04-24T19:28:16.823Z,5.90
2019-04-24T19:30:44.617Z,5.53
2019-04-24T19:33:13.590Z,6.73
2019-04-24T19:35:42.089Z,2.87
2019-04-24T19:38:12.331Z,3.30
2019-04-24T19:40:42.577Z,5.07
2019-04-24T19:43:13.223Z,3.30
2019-04-24T19:45:42.398Z,3.40
2019-04-24T19:48:12.104Z,5.20
2019-04-24T19:50:41.668Z,4.03
2019-04-24T19:53:17.540Z,4.63
2019-04-24T19:55:41.945Z,9.00
2019-04-24T19:58:12.365Z,4.70
2019-04-24T20:00:40.857Z,7.77
2019-04-24T20:03:09.416Z,5.20
2019-04-24T20:05:37.826Z,4.70
2019-04-24T20:08:06.249Z,2.50
2019-04-24T20:10:36.404Z,3.83
2019-04-24T20:13:05.018Z,6.50
2019-04-24T20:15:33.493Z,3.70
2019-04-24T20:18:02.256Z,3.30
2019-04-24T20:20:30.783Z,5.17
2019-04-24T20:22:59.224Z,5.40
2019-04-24T20:25:27.701Z,5.43
2019-04-24T20:27:56.235Z,3.07
2019-04-24T20:30:24.734Z,2.10
2019-04-24T20:32:53.137Z,3.13
2019-04-24T20:35:22.798Z,5.83
2019-04-24T20:37:51.211Z,7.93
2019-04-24T20:40:21.417Z,10.77
2019-04-24T20:42:50.018Z,11.93
2019-04-24T20:45:19.874Z,2.60
2019-04-24T20:47:49.176Z,2.60
2019-04-24T20:50:18.012Z,11.93
2019-04-24T20:52:47.715Z,4.00
2019-04-24T20:55:16.959Z,2.90
2019-04-24T20:57:45.496Z,21.17
2019-04-24T21:00:15.597Z,8.10
2019-04-24T21:02:44.960Z,3.07
2019-04-24T21:05:13.667Z,3.20
2019-04-24T21:07:46.546Z,3.00
2019-04-24T21:10:18.210Z,4.27
2019-04-24T21:12:46.739Z,6.60
2019-04-24T21:15:22.685Z,2.60
2019-04-24T21:17:51.011Z,2.10
2019-04-24T21:20:20.360Z,2.37
2019-04-24T21:22:49.362Z,2.83
2019-04-24T21:25:17.855Z,3.57
2019-04-24T21:27:46.257Z,4.33
2019-04-24T21:30:15.391Z,19.67
2019-04-24T21:32:42.793Z,5.00
2019-04-24T21:35:11.208Z,4.10
2019-04-24T21:37:39.626Z,1.63
2019-04-24T21:40:08.366Z,2.80
2019-04-24T21:42:36.793Z,2.23
2019-04-24T21:45:09.010Z,2.00
2019-04-24T21:47:37.399Z,2.00
2019-04-24T21:50:06.151Z,4.40
2019-04-24T21:52:34.959Z,3.13
2019-04-24T21:55:04.581Z,1.77
2019-04-24T21:57:34.631Z,2.87
2019-04-24T22:00:05.959Z,2.07
2019-04-24T22:02:36.147Z,1.90
2019-04-24T22:05:11.513Z,2.80
2019-04-24T22:07:41.752Z,3.30
2019-04-24T22:10:10.864Z,2.90
2019-04-24T22:12:39.543Z,2.70
2019-04-24T22:15:08.954Z,1.30
2019-04-24T22:17:37.341Z,1.50
2019-04-24T22:20:11.802Z,2.43
2019-04-24T22:22:55.356Z,3.43
2019-04-24T22:25:17.317Z,5.37
2019-04-24T22:27:45.746Z,1.80
2019-04-24T22:30:20.656Z,1.97
2019-04-24T22:32:49.129Z,2.70
2019-04-24T22:35:28.634Z,1.73
2019-04-24T22:37:57.016Z,4.13
2019-04-24T22:40:28.011Z,1.77
2019-04-24T22:42:56.586Z,2.10
2019-04-24T22:45:25.015Z,2.00
2019-04-24T22:47:53.473Z,1.53
2019-04-24T22:50:21.932Z,6.03
2019-04-24T22:52:51.677Z,2.50
2019-04-24T22:55:22.214Z,8.47
2019-04-24T22:57:50.678Z,3.27
2019-04-24T23:00:24.681Z,1.93
2019-04-24T23:02:53.336Z,2.30
2019-04-24T23:05:22.157Z,2.00
2019-04-24T23:07:50.572Z,2.97
2019-04-24T23:10:19.115Z,2.90
2019-04-24T23:12:47.657Z,2.70
2019-04-24T23:15:16.703Z,2.10
2019-04-24T23:17:45.176Z,2.00
2019-04-24T23:20:14.179Z,6.03
2019-04-24T23:22:44.321Z,2.07
2019-04-24T23:25:17.190Z,5.87
2019-04-24T23:27:58.701Z,3.13
2019-04-24T23:30:31.446Z,1.70
2019-04-24T23:33:17.884Z,3.13
2019-04-24T23:35:46.366Z,1.60
2019-04-24T23:38:14.761Z,2.07
2019-04-24T23:40:43.229Z,2.10
2019-04-24T23:43:11.650Z,2.50
2019-04-24T23:45:40.519Z,3.00
2019-04-24T23:48:08.999Z,2.33
2019-04-24T23:50:37.388Z,3.77
2019-04-24T23:53:05.884Z,3.10
2019-04-24T23:55:34.281Z,1.50
2019-04-24T23:58:02.684Z,1.90
